Погода Еланкана 2 недели

Пензенская область, Россия

27 мая-08 июня
  • 27мая
    Сегодня
    +6°
    +20°
    Ясно и безоблачно
    ВремяПогодаТемператураВлажностьДавлениеВетер, м/сВероятность осадков
    00:00Ясно и безоблачно+11°C61 %756 мм3.9 м/с2 %
    03:00Ясно и безоблачно+8°C61 %757 мм2.2 м/с2 %
    06:00Ясно и безоблачно+9°C66 %758 мм2.2 м/с2 %
    09:00Ясно и безоблачно+15°C40 %759 мм2.9 м/с2 %
    12:00Ясно и безоблачно+17°C38 %759 мм3.0 м/с2 %
    15:00Ясно и безоблачно+19°C38 %758 мм2.2 м/с2 %
    18:00Ясно и безоблачно+18°C42 %757 мм1.7 м/с2 %
    21:00Ясно и безоблачно+12°C69 %758 мм2.2 м/с2 %
  • 28мая
    Вторник
    +8°
    +23°
    Ясно и безоблачно
    ВремяПогодаТемператураВлажностьДавлениеВетер, м/сВероятность осадков
    00:00Ясно и безоблачно+8°C75 %758 мм2.6 м/с2 %
    03:00Ясно и безоблачно+7°C67 %758 мм2.3 м/с2 %
    06:00Ясно и безоблачно+10°C66 %758 мм1.8 м/с2 %
    09:00Ясно и безоблачно+17°C44 %758 мм2.1 м/с2 %
    12:00Ясно и безоблачно+20°C39 %757 мм1.8 м/с2 %
    15:00Ясно и безоблачно+21°C37 %756 мм1.7 м/с2 %
    18:00Ясно и безоблачно+21°C44 %755 мм1.7 м/с2 %
    21:00Ясно и безоблачно+15°C58 %754 мм2.2 м/с2 %
  • 29мая
    Среда
    +13°
    +26°
    Ясно и безоблачно
    ВремяПогодаТемператураВлажностьДавлениеВетер, м/сВероятность осадков
    00:00Ясно и безоблачно+12°C65 %754 мм2.4 м/с2 %
    03:00Ясно и безоблачно+10°C75 %753 мм2.0 м/с2 %
    06:00Ясно и безоблачно+12°C70 %753 мм1.5 м/с2 %
    09:00Ясно и безоблачно+21°C45 %753 мм1.7 м/с2 %
    12:00Ясно и безоблачно+23°C34 %752 мм1.8 м/с2 %
    15:00Ясно и безоблачно+25°C33 %751 мм1.6 м/с2 %
    18:00Ясно и безоблачно+24°C43 %750 мм1.4 м/с2 %
    21:00Ясно и безоблачно+17°C54 %750 мм2.5 м/с2 %
  • 30мая
    Четверг
    +12°
    +27°
    Ясно и безоблачно
    ВремяПогодаТемператураВлажностьДавлениеВетер, м/сВероятность осадков
    00:00Ясно и безоблачно+14°C64 %750 мм2.3 м/с2 %
    03:00Ясно и безоблачно+12°C76 %750 мм1.5 м/с2 %
    06:00Ясно и безоблачно+14°C74 %749 мм1.0 м/с2 %
    09:00Ясно и безоблачно+23°C42 %750 мм0.9 м/с2 %
    12:00Ясно и безоблачно+25°C32 %750 мм2.3 м/с2 %
    15:00Ясно и безоблачно+26°C31 %749 мм1.9 м/с2 %
    18:00Ясно и безоблачно+25°C41 %748 мм1.3 м/с2 %
    21:00Ясно и безоблачно+19°C54 %748 мм2.2 м/с2 %
Мы используем cookies
Соглашаюсь